Time;durP1;ratioP1;P1;durP2;ratioP2;P2;SDS_P1;SDS_P2;PMS_P1;PMS_P2;Temp;Humidity;BMP_temperature;BMP_pressure;BME280_temperature;BME280_humidity;BME280_pressure;Samples;Min_cycle;Max_cycle;Signal;HPM_P1;HPM_P2
2022/04/12 00:01:12;;;;;;;6.18;2.17;;;;;;;;;;4934758;29;20024;-69
2022/04/12 00:03:38;;;;;;;4.10;2.20;;;;;;;;;;4934915;29;20044;-70
2022/04/12 00:06:04;;;;;;;4.43;2.20;;;;;;;;;;4934244;29;20055;-70
2022/04/12 00:08:30;;;;;;;3.50;1.88;;;;;;;;;;4934325;29;20074;-67
2022/04/12 00:10:56;;;;;;;5.88;2.50;;;;;;;;;;4934335;29;20067;-65
2022/04/12 00:13:22;;;;;;;7.30;2.58;;;;;;;;;;4934502;29;20048;-66
2022/04/12 00:15:48;;;;;;;3.28;1.98;;;;;;;;;;4934765;29;20028;-69
2022/04/12 00:20:59;;;;;;;8.45;2.30;;;;;;;;;;4934521;29;20165;-68
2022/04/12 00:23:25;;;;;;;4.45;2.22;;;;;;;;;;4948910;29;20073;-64
2022/04/12 00:25:53;;;;;;;5.10;2.17;;;;;;;;;;4934143;29;20036;-67
2022/04/12 00:28:20;;;;;;;4.63;2.22;;;;;;;;;;4934366;29;20027;-66
2022/04/12 00:30:46;;;;;;;5.63;2.13;;;;;;;;;;4934341;29;20117;-70
2022/04/12 00:33:12;;;;;;;6.13;2.05;;;;;;;;;;4934188;29;20530;-71
2022/04/12 00:35:38;;;;;;;4.03;2.42;;;;;;;;;;4934054;29;20039;-70
2022/04/12 00:38:17;;;;;;;5.93;2.42;;;;;;;;;;4934003;29;20379;-68
2022/04/12 00:40:47;;;;;;;2.80;2.00;;;;;;;;;;4934158;29;20119;-68
2022/04/12 00:43:15;;;;;;;7.18;2.42;;;;;;;;;;4935395;29;20038;-65
2022/04/12 00:45:41;;;;;;;5.57;2.33;;;;;;;;;;4937859;29;20032;-64
2022/04/12 00:48:07;;;;;;;4.32;2.08;;;;;;;;;;4937026;29;20027;-67
2022/04/12 00:50:33;;;;;;;4.00;2.10;;;;;;;;;;4937461;29;20399;-71
2022/04/12 00:52:59;;;;;;;3.78;2.00;;;;;;;;;;4936918;29;20036;-67
2022/04/12 00:55:25;;;;;;;4.07;2.08;;;;;;;;;;4937142;29;20476;-68
2022/04/12 00:57:51;;;;;;;4.75;2.15;;;;;;;;;;4937228;29;20118;-63
2022/04/12 01:00:18;;;;;;;4.30;2.10;;;;;;;;;;4937436;29;20032;-63
2022/04/12 01:02:44;;;;;;;4.57;2.10;;;;;;;;;;4937144;29;20044;-65
2022/04/12 01:05:10;;;;;;;3.13;2.03;;;;;;;;;;4936919;29;20036;-64
2022/04/12 01:07:37;;;;;;;9.77;3.65;;;;;;;;;;4937057;29;20035;-70
2022/04/12 01:10:06;;;;;;;5.05;2.90;;;;;;;;;;4937436;29;20058;-63
2022/04/12 01:12:41;;;;;;;6.15;2.20;;;;;;;;;;4937272;29;20032;-63
2022/04/12 01:15:18;;;;;;;9.10;2.35;;;;;;;;;;4936921;29;20494;-63
2022/04/12 01:17:45;;;;;;;4.03;1.98;;;;;;;;;;4936809;29;20434;-67
2022/04/12 01:20:12;;;;;;;6.82;2.10;;;;;;;;;;4937089;29;20095;-67
2022/04/12 01:23:02;;;;;;;4.78;2.53;;;;;;;;;;4934734;28;20055;-72
2022/04/12 01:25:28;;;;;;;3.30;2.05;;;;;;;;;;4936999;29;20031;-72
2022/04/12 01:27:55;;;;;;;4.43;1.92;;;;;;;;;;4936356;29;20039;-70
2022/04/12 01:30:21;;;;;;;3.90;2.40;;;;;;;;;;4936802;29;20387;-66
2022/04/12 01:32:47;;;;;;;4.88;2.25;;;;;;;;;;4936152;29;20035;-68
2022/04/12 01:35:13;;;;;;;4.40;2.40;;;;;;;;;;4936583;29;20059;-71
2022/04/12 01:37:39;;;;;;;5.55;2.28;;;;;;;;;;4936458;29;20479;-67
2022/04/12 01:40:06;;;;;;;6.68;2.80;;;;;;;;;;4936740;29;20102;-67
2022/04/12 01:42:32;;;;;;;6.28;3.00;;;;;;;;;;4936695;29;20537;-67
2022/04/12 01:44:58;;;;;;;6.38;2.50;;;;;;;;;;4936789;29;20410;-74
2022/04/12 01:47:24;;;;;;;5.20;2.72;;;;;;;;;;4951326;28;20031;-68
2022/04/12 01:49:50;;;;;;;7.43;2.30;;;;;;;;;;4937764;29;20028;-70
2022/04/12 01:52:16;;;;;;;4.03;2.40;;;;;;;;;;4938410;29;20445;-71
2022/04/12 01:54:42;;;;;;;8.68;2.47;;;;;;;;;;4950470;28;20043;-72
2022/04/12 01:57:07;;;;;;;4.75;2.50;;;;;;;;;;4939102;29;20489;-66
2022/04/12 01:59:33;;;;;;;8.13;2.40;;;;;;;;;;4937496;29;20035;-70
2022/04/12 02:01:59;;;;;;;7.85;2.50;;;;;;;;;;4936373;29;20036;-70
2022/04/12 02:04:25;;;;;;;7.28;2.63;;;;;;;;;;4935916;29;20472;-68
2022/04/12 02:06:51;;;;;;;5.50;2.63;;;;;;;;;;4935759;29;20047;-71
2022/04/12 02:09:16;;;;;;;4.45;2.50;;;;;;;;;;4936187;29;20048;-70
2022/04/12 02:11:42;;;;;;;4.35;2.30;;;;;;;;;;4936006;29;20032;-67
2022/04/12 02:14:08;;;;;;;8.48;2.95;;;;;;;;;;4936187;29;20040;-70
2022/04/12 02:16:37;;;;;;;7.00;2.53;;;;;;;;;;4935798;29;20428;-70
2022/04/12 02:19:03;;;;;;;8.98;3.60;;;;;;;;;;4935981;29;20039;-71
2022/04/12 02:21:28;;;;;;;4.97;2.85;;;;;;;;;;4950692;29;20023;-69
2022/04/12 02:23:54;;;;;;;7.03;2.88;;;;;;;;;;4935870;29;20043;-72
2022/04/12 02:26:20;;;;;;;8.43;2.67;;;;;;;;;;4936095;29;20383;-72
2022/04/12 02:28:46;;;;;;;6.13;2.25;;;;;;;;;;4935540;29;20479;-66
2022/04/12 02:31:12;;;;;;;5.50;2.38;;;;;;;;;;4935874;29;20038;-69
2022/04/12 02:33:38;;;;;;;4.57;2.58;;;;;;;;;;4935806;29;20044;-67
2022/04/12 02:36:04;;;;;;;8.98;3.15;;;;;;;;;;4935668;29;20055;-68
2022/04/12 02:38:30;;;;;;;6.60;2.47;;;;;;;;;;4935313;29;20043;-65
2022/04/12 02:40:55;;;;;;;8.38;2.83;;;;;;;;;;4935411;29;20489;-65
2022/04/12 02:43:21;;;;;;;4.32;2.40;;;;;;;;;;4935744;29;20043;-63
2022/04/12 02:45:47;;;;;;;4.95;2.33;;;;;;;;;;4935502;29;20036;-65
2022/04/12 02:48:13;;;;;;;6.75;2.70;;;;;;;;;;4949898;28;20120;-64
2022/04/12 02:50:40;;;;;;;7.38;2.80;;;;;;;;;;4935003;29;20091;-74
2022/04/12 02:53:06;;;;;;;6.50;2.50;;;;;;;;;;4935255;29;20039;-65
2022/04/12 02:55:31;;;;;;;4.78;2.40;;;;;;;;;;4935549;29;20475;-62
2022/04/12 02:57:58;;;;;;;7.50;2.97;;;;;;;;;;4935286;29;20083;-66
2022/04/12 03:00:23;;;;;;;7.40;2.40;;;;;;;;;;4935303;29;20058;-63
2022/04/12 03:02:49;;;;;;;9.13;2.88;;;;;;;;;;4935114;29;20482;-67
2022/04/12 03:05:15;;;;;;;4.32;2.33;;;;;;;;;;4934741;29;20099;-65
2022/04/12 03:07:41;;;;;;;6.63;3.10;;;;;;;;;;4934724;29;20063;-70
2022/04/12 03:10:07;;;;;;;10.07;3.35;;;;;;;;;;4934987;29;20055;-64
2022/04/12 03:12:33;;;;;;;10.32;2.78;;;;;;;;;;4934876;29;20038;-64
2022/04/12 03:14:59;;;;;;;10.88;2.50;;;;;;;;;;4934840;29;20027;-65
2022/04/12 03:17:25;;;;;;;11.63;3.42;;;;;;;;;;4934380;29;20042;-63
2022/04/12 03:19:51;;;;;;;7.78;2.90;;;;;;;;;;4935002;29;20027;-64
2022/04/12 03:22:17;;;;;;;5.15;2.47;;;;;;;;;;4934726;29;20032;-65
2022/04/12 03:24:45;;;;;;;11.85;3.30;;;;;;;;;;4934214;29;20036;-70
2022/04/12 03:27:11;;;;;;;14.00;3.30;;;;;;;;;;4934360;29;20039;-71
2022/04/12 03:29:37;;;;;;;13.82;3.75;;;;;;;;;;4934805;29;20506;-70
2022/04/12 03:32:03;;;;;;;9.52;3.70;;;;;;;;;;4934582;29;20040;-70
2022/04/12 03:34:29;;;;;;;9.88;3.10;;;;;;;;;;4934506;29;20024;-69
2022/04/12 03:36:55;;;;;;;6.93;3.38;;;;;;;;;;4934090;29;20039;-69
2022/04/12 03:39:21;;;;;;;16.02;3.83;;;;;;;;;;4934651;29;20110;-64
2022/04/12 03:41:48;;;;;;;10.38;3.13;;;;;;;;;;4934683;29;20043;-68
2022/04/12 03:44:15;;;;;;;4.95;2.63;;;;;;;;;;4933008;29;20471;-67
2022/04/12 03:46:41;;;;;;;4.75;2.50;;;;;;;;;;4933730;29;20130;-70
2022/04/12 03:49:08;;;;;;;5.10;3.00;;;;;;;;;;4934488;29;20024;-65
2022/04/12 03:51:35;;;;;;;12.90;3.80;;;;;;;;;;4934030;29;20040;-66
2022/04/12 03:54:02;;;;;;;17.58;4.25;;;;;;;;;;4934554;29;20475;-67
2022/04/12 03:56:28;;;;;;;8.25;3.55;;;;;;;;;;4928342;29;20040;-65
2022/04/12 03:58:54;;;;;;;8.93;3.60;;;;;;;;;;4924209;29;20505;-71
2022/04/12 04:01:20;;;;;;;13.00;3.75;;;;;;;;;;4926224;29;20036;-69
2022/04/12 04:03:46;;;;;;;9.85;3.20;;;;;;;;;;4914913;29;20036;-68
2022/04/12 04:06:11;;;;;;;8.63;3.67;;;;;;;;;;4914648;29;20032;-67
2022/04/12 04:08:38;;;;;;;13.10;4.13;;;;;;;;;;4917115;29;20494;-66
2022/04/12 04:11:03;;;;;;;9.38;3.80;;;;;;;;;;4933083;29;20039;-69
2022/04/12 04:13:36;;;;;;;11.48;3.50;;;;;;;;;;4932663;29;20500;-66
2022/04/12 04:16:05;;;;;;;16.73;4.28;;;;;;;;;;4932773;29;20042;-71
2022/04/12 04:18:34;;;;;;;15.70;4.30;;;;;;;;;;4934459;29;20028;-70
2022/04/12 04:21:01;;;;;;;13.27;3.92;;;;;;;;;;4936392;29;20087;-64
2022/04/12 04:23:27;;;;;;;21.20;5.35;;;;;;;;;;4936749;29;20034;-64
2022/04/12 04:25:53;;;;;;;12.65;3.97;;;;;;;;;;4936797;29;20040;-64
2022/04/12 04:28:22;;;;;;;24.10;5.90;;;;;;;;;;4937641;29;20028;-64
2022/04/12 04:30:50;;;;;;;20.05;4.40;;;;;;;;;;4938480;29;20023;-64
2022/04/12 04:33:17;;;;;;;18.33;4.13;;;;;;;;;;4938432;29;20027;-63
2022/04/12 04:35:44;;;;;;;10.80;3.63;;;;;;;;;;4938340;29;20122;-65
2022/04/12 04:38:10;;;;;;;20.42;4.57;;;;;;;;;;4938170;29;20031;-66
2022/04/12 04:40:36;;;;;;;24.58;5.82;;;;;;;;;;4938162;29;20035;-64
2022/04/12 04:43:02;;;;;;;14.77;4.25;;;;;;;;;;4937371;29;20027;-63
2022/04/12 04:45:29;;;;;;;21.90;7.00;;;;;;;;;;4938152;29;20058;-70
2022/04/12 04:47:59;;;;;;;14.07;4.03;;;;;;;;;;4938239;29;20024;-67
2022/04/12 04:50:29;;;;;;;9.25;3.95;;;;;;;;;;4937928;29;20044;-64
2022/04/12 04:52:57;;;;;;;10.63;4.45;;;;;;;;;;4938164;29;20051;-63
2022/04/12 04:55:23;;;;;;;14.57;3.75;;;;;;;;;;4937940;29;20028;-64
2022/04/12 04:57:53;;;;;;;19.40;4.97;;;;;;;;;;4937029;29;20047;-64
2022/04/12 05:00:19;;;;;;;19.95;5.22;;;;;;;;;;4937318;29;20046;-65
2022/04/12 05:02:47;;;;;;;22.67;5.53;;;;;;;;;;4937571;29;20075;-63
2022/04/12 05:05:13;;;;;;;8.65;3.10;;;;;;;;;;4937064;29;20321;-64
2022/04/12 05:07:40;;;;;;;28.42;5.32;;;;;;;;;;4937114;29;20028;-64
2022/04/12 05:10:08;;;;;;;20.40;5.03;;;;;;;;;;4937160;29;20036;-64
2022/04/12 05:12:34;;;;;;;12.75;4.35;;;;;;;;;;4935624;29;20473;-70
2022/04/12 05:15:00;;;;;;;9.82;4.25;;;;;;;;;;4937046;29;20040;-65
2022/04/12 05:17:27;;;;;;;15.80;5.18;;;;;;;;;;4936699;29;20043;-63
2022/04/12 05:19:53;;;;;;;23.67;8.40;;;;;;;;;;4952150;29;20042;-64
2022/04/12 05:22:19;;;;;;;23.85;7.57;;;;;;;;;;4937472;29;20043;-64
2022/04/12 05:24:46;;;;;;;22.30;7.75;;;;;;;;;;4937496;29;20094;-64
2022/04/12 05:27:12;;;;;;;14.27;5.70;;;;;;;;;;4951942;29;20423;-67
2022/04/12 05:29:38;;;;;;;21.88;5.93;;;;;;;;;;4933142;29;20475;-67
2022/04/12 05:32:05;;;;;;;16.60;4.78;;;;;;;;;;4936690;29;20031;-69
2022/04/12 05:34:31;;;;;;;15.55;4.38;;;;;;;;;;4935793;29;20036;-66
2022/04/12 05:36:56;;;;;;;9.65;3.55;;;;;;;;;;4936588;29;20412;-67
2022/04/12 05:39:22;;;;;;;6.15;3.20;;;;;;;;;;4936825;29;20387;-73
2022/04/12 05:41:48;;;;;;;12.90;3.65;;;;;;;;;;4936812;29;20028;-72
2022/04/12 05:44:14;;;;;;;14.43;4.15;;;;;;;;;;4935611;29;20558;-66
2022/04/12 05:46:40;;;;;;;9.57;4.07;;;;;;;;;;4957361;28;20294;-68
2022/04/12 05:49:06;;;;;;;10.00;3.40;;;;;;;;;;4937603;29;20074;-68
2022/04/12 05:51:31;;;;;;;17.05;4.40;;;;;;;;;;4935804;29;20102;-68
2022/04/12 05:53:57;;;;;;;15.18;3.92;;;;;;;;;;4935983;29;20094;-67
2022/04/12 05:56:23;;;;;;;9.68;5.00;;;;;;;;;;4935966;29;20035;-66
2022/04/12 05:58:49;;;;;;;15.50;4.30;;;;;;;;;;4936088;29;20044;-68
2022/04/12 06:01:15;;;;;;;12.52;4.15;;;;;;;;;;4936271;29;20466;-70
2022/04/12 06:03:41;;;;;;;11.18;4.60;;;;;;;;;;4935811;29;20166;-66
2022/04/12 06:06:07;;;;;;;13.73;4.78;;;;;;;;;;4950676;29;20035;-64
2022/04/12 06:08:34;;;;;;;13.68;4.70;;;;;;;;;;4938564;29;20130;-63
2022/04/12 06:11:00;;;;;;;11.52;3.70;;;;;;;;;;4940199;29;20074;-64
2022/04/12 06:13:26;;;;;;;9.05;4.57;;;;;;;;;;4937044;29;20122;-63
2022/04/12 06:15:52;;;;;;;8.60;3.85;;;;;;;;;;4935949;29;20479;-65
2022/04/12 06:18:17;;;;;;;12.27;4.03;;;;;;;;;;4935443;29;20044;-65
2022/04/12 06:20:43;;;;;;;11.13;4.13;;;;;;;;;;4935732;29;20036;-65
2022/04/12 06:23:09;;;;;;;7.68;2.90;;;;;;;;;;4935672;29;20046;-65
2022/04/12 06:25:35;;;;;;;16.58;3.80;;;;;;;;;;4934956;29;20103;-63
2022/04/12 06:28:01;;;;;;;6.28;2.50;;;;;;;;;;4934994;29;20469;-67
2022/04/12 06:30:30;;;;;;;7.38;3.10;;;;;;;;;;4935769;29;20028;-65
2022/04/12 06:32:56;;;;;;;6.07;2.83;;;;;;;;;;4935733;29;20118;-64
2022/04/12 06:35:23;;;;;;;6.05;3.10;;;;;;;;;;4934586;29;20480;-67
2022/04/12 06:37:52;;;;;;;9.63;2.65;;;;;;;;;;4950263;28;20103;-68
2022/04/12 06:40:19;;;;;;;9.38;2.80;;;;;;;;;;4935219;29;20040;-69
2022/04/12 06:42:47;;;;;;;8.23;2.63;;;;;;;;;;4936228;29;20506;-68
2022/04/12 06:45:13;;;;;;;7.65;3.15;;;;;;;;;;4937412;29;20088;-71
2022/04/12 06:47:40;;;;;;;8.65;3.30;;;;;;;;;;4935019;29;20044;-68
2022/04/12 06:50:07;;;;;;;6.22;2.80;;;;;;;;;;4934772;29;20024;-68
2022/04/12 06:52:33;;;;;;;7.15;2.72;;;;;;;;;;4935146;29;20039;-73
2022/04/12 06:54:59;;;;;;;4.82;2.13;;;;;;;;;;4934637;29;20111;-69
2022/04/12 06:57:29;;;;;;;8.43;2.28;;;;;;;;;;4934394;29;20094;-71
2022/04/12 06:59:55;;;;;;;6.28;2.17;;;;;;;;;;4935017;29;20110;-68
2022/04/12 07:02:21;;;;;;;6.03;1.85;;;;;;;;;;4935169;29;20124;-67
2022/04/12 07:04:47;;;;;;;3.95;2.15;;;;;;;;;;4935431;29;20442;-71
2022/04/12 07:07:12;;;;;;;3.58;2.00;;;;;;;;;;4934814;29;20394;-68
2022/04/12 07:09:38;;;;;;;7.55;2.03;;;;;;;;;;4930908;29;20040;-69
2022/04/12 07:12:04;;;;;;;6.63;2.28;;;;;;;;;;4923257;29;20094;-70
2022/04/12 07:14:31;;;;;;;3.60;1.98;;;;;;;;;;4947777;28;20590;-68
2022/04/12 07:16:57;;;;;;;6.22;2.50;;;;;;;;;;4932277;29;20036;-67
2022/04/12 07:19:24;;;;;;;6.03;2.20;;;;;;;;;;4934027;29;20036;-69
2022/04/12 07:21:50;;;;;;;5.30;2.30;;;;;;;;;;4933619;29;20016;-68
2022/04/12 07:24:18;;;;;;;7.35;3.60;;;;;;;;;;4934360;29;20070;-68
2022/04/12 07:26:44;;;;;;;7.63;2.45;;;;;;;;;;4934034;29;20039;-68
2022/04/12 07:29:10;;;;;;;7.75;2.70;;;;;;;;;;4933896;29;20063;-71
2022/04/12 07:31:36;;;;;;;4.30;2.28;;;;;;;;;;4933544;29;20023;-69
2022/04/12 07:34:02;;;;;;;8.55;2.38;;;;;;;;;;4934174;29;20036;-75
2022/04/12 07:36:28;;;;;;;10.52;3.47;;;;;;;;;;4933964;29;20416;-72
2022/04/12 07:38:54;;;;;;;6.85;2.78;;;;;;;;;;4932391;29;20040;-77
2022/04/12 07:41:20;;;;;;;6.57;2.67;;;;;;;;;;4934325;29;20055;-77
2022/04/12 07:43:46;;;;;;;7.45;3.60;;;;;;;;;;4934418;29;20032;-76
2022/04/12 07:46:13;;;;;;;8.60;3.47;;;;;;;;;;4933843;29;20024;-69
2022/04/12 07:48:43;;;;;;;7.45;3.70;;;;;;;;;;4933918;29;20530;-70
2022/04/12 07:51:09;;;;;;;6.88;3.72;;;;;;;;;;4933671;29;20052;-69
2022/04/12 07:53:36;;;;;;;8.85;3.90;;;;;;;;;;4936032;29;20035;-70
2022/04/12 07:56:03;;;;;;;8.95;3.17;;;;;;;;;;4938573;29;20036;-70
2022/04/12 07:58:29;;;;;;;6.57;2.63;;;;;;;;;;4938423;29;20044;-69
2022/04/12 08:00:54;;;;;;;7.43;3.05;;;;;;;;;;4941013;29;20133;-68
2022/04/12 08:03:21;;;;;;;8.07;2.90;;;;;;;;;;4939244;29;20079;-69
2022/04/12 08:05:48;;;;;;;7.50;3.10;;;;;;;;;;4938450;29;20175;-68
2022/04/12 08:08:14;;;;;;;7.53;2.78;;;;;;;;;;4938471;29;20019;-69
2022/04/12 08:10:40;;;;;;;6.25;3.00;;;;;;;;;;4938554;29;20051;-69
2022/04/12 08:13:06;;;;;;;9.40;3.33;;;;;;;;;;4938566;29;20165;-69
2022/04/12 08:15:32;;;;;;;7.50;2.58;;;;;;;;;;4938218;29;20067;-69
2022/04/12 08:17:57;;;;;;;4.57;2.30;;;;;;;;;;4937877;29;20360;-68
2022/04/12 08:20:23;;;;;;;5.15;2.10;;;;;;;;;;4938366;29;20150;-68
2022/04/12 08:22:52;;;;;;;8.20;2.10;;;;;;;;;;4938546;29;20034;-69
2022/04/12 08:25:18;;;;;;;11.60;4.95;;;;;;;;;;4938469;29;20378;-70
2022/04/12 08:27:46;;;;;;;7.63;2.17;;;;;;;;;;4938146;29;20063;-68
2022/04/12 08:30:12;;;;;;;3.92;2.00;;;;;;;;;;4938165;29;20376;-70
2022/04/12 08:32:38;;;;;;;4.97;2.00;;;;;;;;;;4938291;29;20110;-70
2022/04/12 08:35:05;;;;;;;4.40;1.55;;;;;;;;;;4938190;29;20090;-68
2022/04/12 08:37:31;;;;;;;3.72;1.60;;;;;;;;;;4937695;29;20036;-68
2022/04/12 08:39:57;;;;;;;5.28;1.80;;;;;;;;;;4938228;29;20367;-68
2022/04/12 08:42:23;;;;;;;5.28;1.70;;;;;;;;;;4938224;29;20027;-69
2022/04/12 08:44:50;;;;;;;5.22;1.85;;;;;;;;;;4952831;29;20046;-69
2022/04/12 08:47:18;;;;;;;4.75;2.10;;;;;;;;;;4937933;29;20035;-68
2022/04/12 08:49:44;;;;;;;4.97;1.90;;;;;;;;;;4937658;29;20102;-69
2022/04/12 08:52:12;;;;;;;4.78;1.83;;;;;;;;;;4937543;29;20114;-70
2022/04/12 08:54:42;;;;;;;3.75;2.20;;;;;;;;;;4937442;29;20115;-67
2022/04/12 08:57:09;;;;;;;3.22;1.70;;;;;;;;;;4937097;29;20031;-69
2022/04/12 08:59:35;;;;;;;5.28;2.05;;;;;;;;;;4937065;29;20027;-71
2022/04/12 09:02:02;;;;;;;4.78;1.83;;;;;;;;;;4937172;29;20039;-68
2022/04/12 09:04:28;;;;;;;4.50;2.10;;;;;;;;;;4937217;29;20028;-68
2022/04/12 09:06:56;;;;;;;3.80;1.75;;;;;;;;;;4937436;29;20031;-68
2022/04/12 09:09:24;;;;;;;3.72;2.20;;;;;;;;;;4937457;29;20020;-71
2022/04/12 09:12:11;;;;;;;4.30;1.95;;;;;;;;;;4937478;29;20463;-72
2022/04/12 09:14:40;;;;;;;5.07;2.22;;;;;;;;;;4937568;29;20031;-69
2022/04/12 09:17:08;;;;;;;3.67;1.80;;;;;;;;;;4937300;29;20031;-71
2022/04/12 09:19:41;;;;;;;4.47;1.73;;;;;;;;;;4937083;29;20046;-70
2022/04/12 09:22:11;;;;;;;4.35;1.60;;;;;;;;;;4937166;29;20115;-72
2022/04/12 09:24:42;;;;;;;4.45;1.70;;;;;;;;;;4937548;29;20048;-70
2022/04/12 09:27:13;;;;;;;3.90;1.80;;;;;;;;;;4937309;29;20043;-72
2022/04/12 09:29:53;;;;;;;10.13;1.77;;;;;;;;;;4937086;29;20036;-69
2022/04/12 09:32:20;;;;;;;6.15;1.75;;;;;;;;;;4937377;29;20035;-71
2022/04/12 09:34:46;;;;;;;2.33;1.30;;;;;;;;;;4936157;29;20028;-69
2022/04/12 09:37:38;;;;;;;4.78;1.70;;;;;;;;;;4935561;29;20031;-75
2022/04/12 09:40:11;;;;;;;3.05;1.48;;;;;;;;;;4935518;29;20496;-75
2022/04/12 09:42:54;;;;;;;;;;;;;;;;;;4937484;29;20071;-67
2022/04/12 09:45:27;;;;;;;8.18;1.85;;;;;;;;;;4936931;29;19921;-72
2022/04/12 09:47:55;;;;;;;3.22;1.70;;;;;;;;;;4932669;29;20043;-69
2022/04/12 09:50:22;;;;;;;6.25;2.13;;;;;;;;;;4922738;29;20108;-71
2022/04/12 09:52:59;;;;;;;6.78;2.20;;;;;;;;;;4934198;29;20043;-76
2022/04/12 09:55:42;;;;;;;5.63;1.85;;;;;;;;;;4936429;29;20102;-69
2022/04/12 09:58:16;;;;;;;3.50;1.83;;;;;;;;;;4936019;29;20099;-70
2022/04/12 10:00:47;;;;;;;7.05;1.38;;;;;;;;;;4936383;29;20036;-69
2022/04/12 10:03:17;;;;;;;3.88;1.52;;;;;;;;;;4936281;29;20060;-69
2022/04/12 10:05:44;;;;;;;7.93;2.10;;;;;;;;;;4936072;29;20115;-72
2022/04/12 10:08:12;;;;;;;5.30;1.90;;;;;;;;;;4950885;28;20027;-76
2022/04/12 10:10:45;;;;;;;7.45;2.53;;;;;;;;;;4935825;29;20040;-70
2022/04/12 10:13:13;;;;;;;6.32;1.73;;;;;;;;;;4936042;29;20119;-79
2022/04/12 10:15:40;;;;;;;4.60;1.30;;;;;;;;;;4935073;29;20032;-73
2022/04/12 10:18:06;;;;;;;4.95;1.80;;;;;;;;;;4935673;29;20138;-75
2022/04/12 10:20:33;;;;;;;5.97;2.40;;;;;;;;;;4935805;29;20086;-75
2022/04/12 10:22:59;;;;;;;6.60;2.70;;;;;;;;;;4935685;29;20118;-67
2022/04/12 10:25:26;;;;;;;5.95;3.08;;;;;;;;;;4935911;29;20032;-74
2022/04/12 10:28:02;;;;;;;14.30;3.30;;;;;;;;;;4935595;29;20031;-75
2022/04/12 10:30:29;;;;;;;3.58;1.35;;;;;;;;;;4936100;29;20114;-71
2022/04/12 10:32:58;;;;;;;4.38;2.03;;;;;;;;;;4936826;29;20475;-71
2022/04/12 10:35:24;;;;;;;4.13;2.10;;;;;;;;;;4935597;29;20482;-73
2022/04/12 10:37:52;;;;;;;5.85;1.95;;;;;;;;;;4935534;29;20031;-74
2022/04/12 10:40:19;;;;;;;9.63;2.42;;;;;;;;;;4937900;29;20071;-74
2022/04/12 10:42:45;;;;;;;4.90;1.70;;;;;;;;;;4939034;29;20023;-73
2022/04/12 10:45:11;;;;;;;5.80;1.98;;;;;;;;;;4936239;29;20035;-75
2022/04/12 10:47:43;;;;;;;5.03;1.38;;;;;;;;;;4935955;29;20358;-75
2022/04/12 10:50:11;;;;;;;3.85;1.27;;;;;;;;;;4932027;29;20036;-76
2022/04/12 10:52:50;;;;;;;7.85;2.38;;;;;;;;;;4934563;29;20103;-69
2022/04/12 10:55:23;;;;;;;5.55;2.45;;;;;;;;;;4933121;29;20483;-70
2022/04/12 10:57:51;;;;;;;4.93;2.55;;;;;;;;;;4933815;29;20087;-68
2022/04/12 11:00:21;;;;;;;7.30;2.38;;;;;;;;;;4934214;29;20035;-70
2022/04/12 11:03:00;;;;;;;4.47;2.35;;;;;;;;;;4932650;29;20427;-67
2022/04/12 11:05:42;;;;;;;7.40;2.08;;;;;;;;;;4933704;29;20043;-75
2022/04/12 11:08:33;;;;;;;5.00;2.13;;;;;;;;;;4933451;29;20039;-71
2022/04/12 11:10:59;;;;;;;5.57;1.85;;;;;;;;;;4933445;29;20502;-70
2022/04/12 11:13:28;;;;;;;3.50;1.60;;;;;;;;;;4935116;29;20070;-75
2022/04/12 11:16:06;;;;;;;4.00;1.48;;;;;;;;;;4935368;29;20023;-70
2022/04/12 11:18:50;;;;;;;6.95;1.98;;;;;;;;;;4935252;29;20118;-70
2022/04/12 11:21:20;;;;;;;3.20;1.50;;;;;;;;;;4934277;29;20063;-70
2022/04/12 11:24:04;;;;;;;3.95;1.45;;;;;;;;;;4935243;29;20035;-70
2022/04/12 11:26:44;;;;;;;5.47;1.73;;;;;;;;;;4935536;28;20042;-67
2022/04/12 11:29:15;;;;;;;3.80;1.50;;;;;;;;;;4935151;29;20036;-66
2022/04/12 11:31:53;;;;;;;3.00;1.25;;;;;;;;;;4935699;29;20036;-67
2022/04/12 11:34:20;;;;;;;2.55;1.40;;;;;;;;;;4935159;29;20115;-67
2022/04/12 11:36:51;;;;;;;3.75;1.55;;;;;;;;;;4933341;29;20032;-68
2022/04/12 11:39:22;;;;;;;4.80;2.20;;;;;;;;;;4935007;29;20044;-74
2022/04/12 11:41:48;;;;;;;3.30;1.80;;;;;;;;;;4934538;29;20525;-70
2022/04/12 11:44:15;;;;;;;4.47;1.60;;;;;;;;;;4935176;29;20106;-73
2022/04/12 11:46:41;;;;;;;7.38;1.95;;;;;;;;;;4935215;29;20036;-68
2022/04/12 11:49:12;;;;;;;7.93;2.50;;;;;;;;;;4934998;29;20040;-69
2022/04/12 11:51:48;;;;;;;3.50;1.70;;;;;;;;;;4934883;29;20048;-76
2022/04/12 11:54:28;;;;;;;7.80;1.90;;;;;;;;;;4935274;29;20372;-73
2022/04/12 11:57:01;;;;;;;4.22;1.70;;;;;;;;;;4935050;29;20028;-69
2022/04/12 11:59:29;;;;;;;5.35;1.85;;;;;;;;;;4935457;29;20055;-71
2022/04/12 12:02:01;;;;;;;10.82;2.60;;;;;;;;;;4935067;29;20032;-72
2022/04/12 12:04:43;;;;;;;4.78;1.75;;;;;;;;;;4935288;29;20044;-68
2022/04/12 12:07:09;;;;;;;4.22;1.77;;;;;;;;;;4934865;29;20032;-70
2022/04/12 12:09:35;;;;;;;7.25;2.28;;;;;;;;;;4934768;29;20031;-69
2022/04/12 12:12:05;;;;;;;2.55;1.73;;;;;;;;;;4935066;29;20066;-70
2022/04/12 12:14:31;;;;;;;9.30;2.35;;;;;;;;;;4934918;29;20031;-73
2022/04/12 12:17:06;;;;;;;4.75;1.80;;;;;;;;;;4949442;28;20039;-70
2022/04/12 12:19:38;;;;;;;6.15;1.70;;;;;;;;;;4935074;29;20031;-75
2022/04/12 12:22:11;;;;;;;8.93;2.45;;;;;;;;;;4934861;29;20175;-69
2022/04/12 12:24:53;;;;;;;5.95;1.63;;;;;;;;;;4934897;29;20036;-70
2022/04/12 12:27:38;;;;;;;4.95;1.98;;;;;;;;;;4934894;29;20040;-68
2022/04/12 12:30:15;;;;;;;11.13;1.88;;;;;;;;;;4934275;29;20036;-70
2022/04/12 12:32:42;;;;;;;4.38;1.40;;;;;;;;;;4934506;29;20495;-69
2022/04/12 12:35:11;;;;;;;5.55;1.70;;;;;;;;;;4934853;29;20052;-71
2022/04/12 12:37:38;;;;;;;8.27;2.03;;;;;;;;;;4934595;29;20043;-69
2022/04/12 12:40:25;;;;;;;2.55;1.38;;;;;;;;;;4937218;29;20031;-70
2022/04/12 12:42:54;;;;;;;3.50;1.60;;;;;;;;;;4938039;29;20032;-69
2022/04/12 12:45:22;;;;;;;5.15;1.65;;;;;;;;;;4937920;29;20023;-71
2022/04/12 12:47:52;;;;;;;3.50;1.60;;;;;;;;;;4937970;29;20175;-67
2022/04/12 12:50:20;;;;;;;8.85;2.45;;;;;;;;;;4937917;29;20043;-72
2022/04/12 12:52:46;;;;;;;4.55;1.50;;;;;;;;;;4937960;29;20043;-70
2022/04/12 12:55:18;;;;;;;5.80;1.60;;;;;;;;;;4938487;29;20123;-68
2022/04/12 12:57:49;;;;;;;4.28;1.50;;;;;;;;;;4952596;28;20051;-75
2022/04/12 13:00:19;;;;;;;2.90;1.83;;;;;;;;;;4938037;29;20399;-78
2022/04/12 13:02:46;;;;;;;3.47;2.28;;;;;;;;;;4937809;29;20060;-72
2022/04/12 13:05:17;;;;;;;5.68;1.50;;;;;;;;;;4937476;29;20043;-75
2022/04/12 13:07:43;;;;;;;6.53;1.88;;;;;;;;;;4937704;29;20483;-72
2022/04/12 13:10:17;;;;;;;4.85;1.30;;;;;;;;;;4938052;29;20091;-81
2022/04/12 13:12:45;;;;;;;2.75;1.60;;;;;;;;;;4937914;29;20044;-71
2022/04/12 13:15:13;;;;;;;2.03;1.30;;;;;;;;;;4937590;29;20028;-72
2022/04/12 13:17:40;;;;;;;5.03;1.63;;;;;;;;;;4937367;29;20059;-77
2022/04/12 13:20:08;;;;;;;3.05;1.38;;;;;;;;;;4937550;29;20024;-78
2022/04/12 13:22:34;;;;;;;2.83;1.63;;;;;;;;;;4937452;29;20125;-77
2022/04/12 13:25:00;;;;;;;7.63;2.65;;;;;;;;;;4937726;29;20031;-80
2022/04/12 13:27:26;;;;;;;3.20;1.60;;;;;;;;;;4937682;29;20036;-74
2022/04/12 13:29:52;;;;;;;4.05;1.30;;;;;;;;;;4937490;29;20439;-73
2022/04/12 13:32:19;;;;;;;6.82;1.65;;;;;;;;;;4937123;29;20043;-74
2022/04/12 13:34:45;;;;;;;5.38;1.40;;;;;;;;;;4933941;29;20019;-72
2022/04/12 13:37:15;;;;;;;3.58;2.13;;;;;;;;;;4936124;29;20032;-75
2022/04/12 13:39:41;;;;;;;6.85;1.60;;;;;;;;;;4936282;29;20032;-74
2022/04/12 13:42:08;;;;;;;3.83;1.60;;;;;;;;;;4936450;29;20095;-71
2022/04/12 13:44:34;;;;;;;4.72;1.67;;;;;;;;;;4936806;29;20106;-70
2022/04/12 13:47:02;;;;;;;2.30;1.40;;;;;;;;;;4936149;29;20038;-75
2022/04/12 13:49:29;;;;;;;2.80;1.40;;;;;;;;;;4936352;29;20032;-77
2022/04/12 13:51:56;;;;;;;4.85;1.20;;;;;;;;;;4935310;29;20399;-75
2022/04/12 13:54:23;;;;;;;7.95;1.50;;;;;;;;;;4935623;29;20040;-78
2022/04/12 13:56:49;;;;;;;3.40;1.20;;;;;;;;;;4936095;29;20196;-74
2022/04/12 13:59:15;;;;;;;5.82;1.75;;;;;;;;;;4936004;29;20059;-72
2022/04/12 14:01:41;;;;;;;4.20;1.30;;;;;;;;;;4936120;29;20039;-75
2022/04/12 14:04:08;;;;;;;3.47;1.30;;;;;;;;;;4935914;29;20080;-73
2022/04/12 14:06:34;;;;;;;3.22;1.63;;;;;;;;;;4948062;28;20059;-69
2022/04/12 14:09:00;;;;;;;3.95;1.30;;;;;;;;;;4933815;29;20086;-71
2022/04/12 14:11:26;;;;;;;3.30;1.30;;;;;;;;;;4935938;29;20110;-72
2022/04/12 14:13:52;;;;;;;3.78;1.20;;;;;;;;;;4935342;29;20475;-71
2022/04/12 14:16:18;;;;;;;3.78;1.30;;;;;;;;;;4934354;29;20079;-67
2022/04/12 14:18:44;;;;;;;5.30;1.60;;;;;;;;;;4934165;29;20032;-72
2022/04/12 14:21:11;;;;;;;2.72;1.55;;;;;;;;;;4934147;29;20066;-68
2022/04/12 14:23:44;;;;;;;2.50;1.67;;;;;;;;;;4934403;29;20034;-72
2022/04/12 14:26:11;;;;;;;2.42;1.25;;;;;;;;;;4935802;29;20074;-68
2022/04/12 14:28:37;;;;;;;2.08;1.27;;;;;;;;;;4935641;29;20252;-69
2022/04/12 14:31:07;;;;;;;8.57;2.00;;;;;;;;;;4935983;29;20487;-71
2022/04/12 14:33:34;;;;;;;6.18;1.70;;;;;;;;;;4936309;29;20074;-68
2022/04/12 14:35:59;;;;;;;4.50;1.10;;;;;;;;;;4936075;29;20024;-75
2022/04/12 14:38:27;;;;;;;3.55;1.33;;;;;;;;;;4935945;29;20398;-69
2022/04/12 14:40:56;;;;;;;2.53;1.40;;;;;;;;;;4936064;29;20040;-72
2022/04/12 14:43:26;;;;;;;8.57;1.88;;;;;;;;;;4935701;29;20039;-71
2022/04/12 14:45:52;;;;;;;4.68;1.25;;;;;;;;;;4935600;29;20047;-67
2022/04/12 14:48:19;;;;;;;4.75;1.30;;;;;;;;;;4935639;29;20036;-68